Time;durP1;ratioP1;P1;durP2;ratioP2;P2;SDS_P1;SDS_P2;PMS_P1;PMS_P2;Temp;Humidity;BMP_temperature;BMP_pressure;BME280_temperature;BME280_humidity;BME280_pressure;Samples;Min_cycle;Max_cycle;Signal;HPM_P1;HPM_P2
2023/01/18 00:00:40;;;;;;;4.93;3.30;;;;;;;1.51;71.82;97694.00;4985907;28;20034;-89
2023/01/18 00:03:32;;;;;;;;;;;;;;;;;;;;;
2023/01/18 00:06:26;;;;;;;;;;;;;;;;;;;;;
2023/01/18 00:09:03;;;;;;;6.43;3.90;;;;;;;1.30;72.62;97689.28;4997066;28;20539;-88
2023/01/18 00:15:41;;;;;;;5.20;3.22;;;;;;;1.28;72.15;97689.44;4982804;28;20038;-86
2023/01/18 00:21:56;;;;;;;6.00;3.80;;;;;;;1.27;72.78;97682.63;4905517;29;20048;-86
2023/01/18 00:25:11;;;;;;;6.53;3.70;;;;;;;1.31;72.30;97678.72;4864609;29;20053;-87
2023/01/18 00:31:48;;;;;;;;;;;;;;;;;;;;;
2023/01/18 00:34:32;;;;;;;5.97;3.47;;;;;;;1.30;72.13;97673.66;4911891;28;20048;-88
2023/01/18 00:40:14;;;;;;;7.15;3.42;;;;;;;1.34;72.15;97672.38;4963104;28;20566;-88
2023/01/18 00:43:38;;;;;;;5.13;3.40;;;;;;;1.32;72.72;97671.72;4984184;28;20089;-88
2023/01/18 00:46:29;;;;;;;5.03;3.15;;;;;;;1.30;72.58;97677.06;4933601;28;20102;-88
2023/01/18 00:49:21;;;;;;;;;;;;;;;;;;;;;
2023/01/18 00:52:24;;;;;;;4.25;2.67;;;;;;;1.31;72.95;97680.50;4993971;28;20046;-88
2023/01/18 00:55:35;;;;;;;;;;;;;;;;;;;;;
2023/01/18 00:58:24;;;;;;;;;;;;;;;;;;;;;
2023/01/18 01:01:19;;;;;;;5.00;3.30;;;;;;;1.16;73.39;97685.53;4979329;28;20046;-88
2023/01/18 01:06:52;;;;;;;4.80;3.00;;;;;;;1.10;74.40;97688.78;4983933;28;20590;-88
2023/01/18 01:09:41;;;;;;;5.63;3.50;;;;;;;1.07;74.84;97692.50;4993527;28;20034;-88
2023/01/18 01:27:45;;;;;;;6.90;4.07;;;;;;;0.90;75.79;97696.06;4988565;28;20557;-88
2023/01/18 01:45:40;;;;;;;6.45;3.85;;;;;;;0.87;76.77;97725.81;5035331;28;20512;-89
2023/01/18 01:48:08;;;;;;;6.53;4.20;;;;;;;0.87;77.04;97727.63;5022643;28;20417;-88
2023/01/18 01:50:38;;;;;;;7.40;4.03;;;;;;;0.90;75.71;97732.50;5038891;28;20025;-87
2023/01/18 01:53:04;;;;;;;8.15;4.95;;;;;;;0.88;76.45;97734.44;5022672;28;20686;-89
2023/01/18 01:55:38;;;;;;;7.18;4.43;;;;;;;0.91;75.66;97741.94;5014165;28;20042;-89
2023/01/18 01:58:09;;;;;;;7.25;4.38;;;;;;;0.88;76.71;97745.66;5033286;28;20029;-85
2023/01/18 02:00:35;;;;;;;9.80;5.07;;;;;;;0.84;76.78;97745.16;5020786;28;20589;-89
2023/01/18 02:03:06;;;;;;;9.15;4.60;;;;;;;0.87;76.31;97749.25;5022738;28;20103;-88
2023/01/18 02:05:34;;;;;;;6.23;3.90;;;;;;;0.88;76.46;97761.25;5022153;28;20104;-88
2023/01/18 02:08:01;;;;;;;7.57;4.10;;;;;;;0.88;75.88;97757.84;5040218;28;20036;-88
2023/01/18 02:10:28;;;;;;;6.43;3.85;;;;;;;0.86;76.52;97763.22;5020253;28;20060;-88
2023/01/18 02:12:55;;;;;;;6.65;3.97;;;;;;;0.84;76.28;97760.78;5020167;28;20096;-89
2023/01/18 02:15:26;;;;;;;8.48;4.40;;;;;;;0.85;75.91;97766.78;5018338;28;20037;-89
2023/01/18 02:18:09;;;;;;;12.18;5.20;;;;;;;0.81;76.42;97768.06;5005749;28;20025;-89
2023/01/18 02:20:59;;;;;;;8.50;4.60;;;;;;;0.80;76.52;97776.84;5040010;28;20023;-90
2023/01/18 02:23:42;;;;;;;11.13;5.18;;;;;;;0.77;76.53;97779.78;5040333;28;20105;-88
2023/01/18 02:26:35;;;;;;;8.70;4.63;;;;;;;0.73;77.23;97781.88;5025804;28;20129;-87
2023/01/18 02:29:17;;;;;;;9.55;5.05;;;;;;;0.72;77.06;97776.84;5041969;28;20041;-84
2023/01/18 02:32:21;;;;;;;10.13;4.88;;;;;;;0.68;77.61;97785.91;5025443;28;20040;-84
2023/01/18 02:35:06;;;;;;;9.38;4.88;;;;;;;0.65;77.25;97783.63;4964586;28;20101;-85
2023/01/18 02:37:48;;;;;;;9.82;4.50;;;;;;;0.62;77.22;97785.56;5030011;28;20631;-83
2023/01/18 02:40:33;;;;;;;11.27;5.55;;;;;;;0.56;78.19;97790.56;5018848;28;20026;-83
2023/01/18 02:48:35;;;;;;;10.02;4.78;;;;;;;0.57;77.72;97792.19;5018188;28;20103;-85
2023/01/18 02:51:00;;;;;;;10.93;5.10;;;;;;;0.56;78.00;97803.56;5002316;28;20034;-84
2023/01/18 02:53:26;;;;;;;7.95;4.53;;;;;;;0.54;78.65;97808.13;5016543;28;20041;-85
2023/01/18 02:56:09;;;;;;;7.38;4.50;;;;;;;0.50;78.94;97810.22;5016083;28;20481;-84
2023/01/18 02:58:52;;;;;;;7.88;4.55;;;;;;;0.49;78.95;97803.38;5015571;28;20042;-84
2023/01/18 03:01:34;;;;;;;10.10;4.80;;;;;;;0.49;78.99;97811.19;5016089;28;20068;-85
2023/01/18 03:04:25;;;;;;;10.70;5.20;;;;;;;0.52;78.42;97807.44;5019176;28;20057;-84
2023/01/18 03:06:58;;;;;;;6.90;4.10;;;;;;;0.49;78.36;97813.78;4996765;28;20024;-85
2023/01/18 03:09:26;;;;;;;8.05;4.60;;;;;;;0.50;78.21;97809.38;5002932;28;20037;-84
2023/01/18 03:12:00;;;;;;;8.50;4.53;;;;;;;0.49;78.44;97818.16;5021035;28;20116;-85
2023/01/18 03:14:54;;;;;;;6.35;3.72;;;;;;;0.47;78.87;97817.50;4998135;28;20022;-83
2023/01/18 03:17:27;;;;;;;7.53;4.15;;;;;;;0.44;79.27;97823.81;5014509;28;20044;-84
2023/01/18 03:20:06;;;;;;;6.70;4.60;;;;;;;0.44;79.23;97829.03;5016533;28;20045;-83
2023/01/18 03:25:33;;;;;;;6.38;4.00;;;;;;;0.44;79.54;97829.03;5019932;28;20048;-83
2023/01/18 03:33:43;;;;;;;7.10;4.55;;;;;;;0.45;79.31;97835.84;5013987;28;20180;-84
2023/01/18 03:36:15;;;;;;;7.78;4.60;;;;;;;0.41;80.31;97844.94;4998649;28;20040;-84
2023/01/18 03:38:43;;;;;;;8.18;4.20;;;;;;;0.44;79.97;97847.22;5002528;28;20042;-83
2023/01/18 03:41:10;;;;;;;7.57;4.38;;;;;;;0.43;79.77;97845.59;5002493;28;20722;-84
2023/01/18 03:43:38;;;;;;;10.50;5.28;;;;;;;0.44;79.81;97849.00;4999789;28;20042;-83
2023/01/18 03:46:04;;;;;;;7.40;4.55;;;;;;;0.42;79.97;97860.38;5011674;28;20045;-84
2023/01/18 03:48:31;;;;;;;6.95;4.80;;;;;;;0.47;78.95;97859.91;4998493;28;20043;-84
2023/01/18 03:51:24;;;;;;;7.55;4.72;;;;;;;0.47;79.28;97861.69;5017889;28;20041;-84
2023/01/18 03:54:09;;;;;;;;;;;;;;;0.48;79.34;97869.34;5016309;28;20042;-84
2023/01/18 03:56:50;;;;;;;6.28;4.22;;;;;;;0.48;79.44;97869.34;4999042;28;19924;-84
2023/01/18 03:59:15;;;;;;;7.60;4.63;;;;;;;0.50;79.58;97866.59;5016649;28;20057;-85
2023/01/18 04:01:43;;;;;;;6.70;4.53;;;;;;;0.50;79.43;97870.03;5001056;28;20064;-84
2023/01/18 04:04:09;;;;;;;5.82;3.75;;;;;;;0.54;78.83;97873.13;4993459;28;20037;-86
2023/01/18 04:06:35;;;;;;;5.35;3.60;;;;;;;0.61;79.13;97874.94;5014723;28;20509;-84
2023/01/18 04:09:00;;;;;;;5.32;3.70;;;;;;;0.61;79.07;97885.34;5001679;28;20043;-84
2023/01/18 04:11:25;;;;;;;;;;;;;;;0.59;79.41;97879.47;5008221;28;20395;-84
2023/01/18 04:13:50;;;;;;;5.97;3.90;;;;;;;0.58;79.55;97883.06;5001259;28;19918;-85
2023/01/18 04:16:16;;;;;;;7.03;4.30;;;;;;;0.55;79.64;97885.97;5004106;28;20035;-84
2023/01/18 04:18:41;;;;;;;6.25;4.03;;;;;;;0.55;79.75;97896.38;5017026;28;20124;-84
2023/01/18 04:21:06;;;;;;;;;;;;;;;0.54;80.03;97897.31;4996831;28;20030;-84
2023/01/18 04:23:31;;;;;;;;;;;;;;;0.52;80.39;97907.06;5000403;28;19917;-85
2023/01/18 04:25:57;;;;;;;7.50;4.47;;;;;;;0.51;80.11;97905.44;5013447;28;19963;-85
2023/01/18 04:28:26;;;;;;;6.03;4.07;;;;;;;0.49;80.29;97907.38;5017088;28;20293;-84
2023/01/18 04:30:55;;;;;;;6.75;4.20;;;;;;;0.49;80.28;97916.97;5021539;28;20029;-84
2023/01/18 04:33:22;;;;;;;5.63;3.90;;;;;;;0.54;79.39;97919.91;5016442;28;20034;-84
2023/01/18 04:35:48;;;;;;;6.82;4.22;;;;;;;0.50;80.36;97910.78;4995651;28;20041;-85
2023/01/18 04:38:14;;;;;;;6.85;3.92;;;;;;;0.50;80.37;97919.41;5000828;28;20125;-84
2023/01/18 04:40:40;;;;;;;6.70;4.30;;;;;;;0.52;80.33;97922.66;4999950;28;20065;-82
2023/01/18 04:43:06;;;;;;;6.13;4.47;;;;;;;0.53;80.32;97924.31;5017371;28;20026;-84
2023/01/18 04:45:31;;;;;;;7.03;4.65;;;;;;;0.54;80.76;97925.94;5001760;28;20041;-84
2023/01/18 04:47:57;;;;;;;;;;;;;;;0.54;80.75;97922.50;5001681;28;20014;-82
2023/01/18 04:50:22;;;;;;;7.10;4.33;;;;;;;0.56;80.23;97929.19;5015725;28;19918;-85
2023/01/18 04:52:48;;;;;;;6.93;4.53;;;;;;;0.58;80.63;97931.66;5017434;28;20065;-84
2023/01/18 04:55:14;;;;;;;6.18;4.20;;;;;;;0.57;80.54;97932.59;5000153;28;20033;-84
2023/01/18 04:57:42;;;;;;;6.60;4.30;;;;;;;0.67;80.50;97945.50;4998167;28;20409;-84
2023/01/18 05:00:10;;;;;;;6.32;3.65;;;;;;;0.67;80.30;97942.91;5018113;28;20026;-83
2023/01/18 05:02:35;;;;;;;5.78;3.78;;;;;;;0.62;81.02;97943.34;5001175;28;20045;-83
2023/01/18 05:05:00;;;;;;;6.50;4.45;;;;;;;0.51;82.28;97944.44;5008153;28;20049;-83
2023/01/18 05:07:29;;;;;;;8.65;5.05;;;;;;;0.51;82.21;97948.81;5018833;28;20030;-84
2023/01/18 05:09:55;;;;;;;8.50;5.20;;;;;;;0.42;83.16;97958.34;5015231;28;20072;-84
2023/01/18 05:12:21;;;;;;;7.35;4.68;;;;;;;0.36;84.01;97971.94;5003850;28;20038;-84
2023/01/18 05:14:46;;;;;;;7.18;4.82;;;;;;;0.32;84.44;97968.00;5013050;28;20394;-83
2023/01/18 05:17:11;;;;;;;9.18;5.50;;;;;;;0.30;84.02;97972.53;5014500;28;20119;-83
2023/01/18 05:19:37;;;;;;;10.13;5.03;;;;;;;0.25;84.88;97982.56;5001450;28;20049;-84
2023/01/18 05:22:03;;;;;;;9.38;5.68;;;;;;;0.23;84.56;97993.09;5005547;28;20057;-84
2023/01/18 05:24:29;;;;;;;7.88;5.57;;;;;;;0.28;84.37;97992.66;4995474;28;20477;-83
2023/01/18 05:26:54;;;;;;;6.83;4.90;;;;;;;0.36;84.09;97998.75;4993423;28;20848;-84
2023/01/18 05:29:19;;;;;;;7.20;4.03;;;;;;;0.32;84.03;98005.22;5017631;28;20038;-84
2023/01/18 05:31:44;;;;;;;5.23;4.20;;;;;;;0.40;84.08;97997.47;4996307;28;20449;-84
2023/01/18 05:34:10;;;;;;;6.17;4.40;;;;;;;0.47;84.50;98009.88;5014280;28;20483;-84
2023/01/18 05:36:35;;;;;;;9.80;5.13;;;;;;;0.36;85.55;98009.16;5000456;28;20034;-84
2023/01/18 05:39:01;;;;;;;6.73;5.13;;;;;;;0.39;85.08;98011.44;5021849;28;20411;-84
2023/01/18 05:41:26;;;;;;;6.65;4.60;;;;;;;0.38;85.87;98015.03;5015489;28;20924;-85
2023/01/18 05:43:51;;;;;;;;;;;;;;;0.36;86.37;98021.34;5014937;28;20022;-84
2023/01/18 05:46:16;;;;;;;;;;;;;;;0.29;86.65;98018.50;5000457;28;19943;-83
2023/01/18 05:48:42;;;;;;;11.07;6.07;;;;;;;0.22;87.16;98030.47;4995327;28;19918;-85
2023/01/18 05:51:08;;;;;;;7.17;5.50;;;;;;;0.31;86.05;98032.19;4996591;28;20421;-84
2023/01/18 05:53:34;;;;;;;8.45;5.68;;;;;;;0.26;87.09;98033.56;4997841;28;20059;-84
2023/01/18 05:56:07;;;;;;;8.07;5.18;;;;;;;0.20;87.75;98037.59;5003672;28;20116;-83
2023/01/18 05:58:33;;;;;;;8.88;5.28;;;;;;;0.19;87.31;98041.13;5003673;28;20092;-83
2023/01/18 06:00:58;;;;;;;9.50;5.45;;;;;;;0.14;88.46;98039.00;4990726;28;20045;-84
2023/01/18 06:03:24;;;;;;;8.75;4.80;;;;;;;0.15;87.70;98050.22;5003994;28;20037;-83
2023/01/18 06:05:50;;;;;;;8.77;5.18;;;;;;;0.16;86.74;98057.84;5002809;28;20041;-84
2023/01/18 06:08:16;;;;;;;9.07;5.88;;;;;;;0.12;89.14;98063.47;5005559;28;20049;-83
2023/01/18 06:10:42;;;;;;;9.68;5.70;;;;;;;0.15;87.15;98071.81;5006926;28;20225;-83
2023/01/18 06:13:08;;;;;;;8.52;5.35;;;;;;;0.10;88.65;98078.41;5003887;28;20605;-84
2023/01/18 06:15:34;;;;;;;9.15;5.50;;;;;;;0.07;89.17;98084.72;5005699;28;20225;-83
2023/01/18 06:17:59;;;;;;;8.07;5.85;;;;;;;0.08;87.58;98086.34;5022345;28;20088;-85
2023/01/18 06:20:29;;;;;;;9.65;5.28;;;;;;;0.04;89.37;98091.97;5019509;28;20060;-84
2023/01/18 06:22:56;;;;;;;8.82;5.60;;;;;;;0.05;88.50;98093.59;5015581;28;20612;-84
2023/01/18 06:25:21;;;;;;;9.90;6.18;;;;;;;0.02;89.57;98096.50;5003599;28;20438;-84
2023/01/18 06:27:46;;;;;;;8.27;5.55;;;;;;;0.04;88.96;98102.38;5020358;28;20044;-85
2023/01/18 06:30:12;;;;;;;11.18;6.22;;;;;;;0.07;87.96;98109.88;5019407;28;20074;-83
2023/01/18 06:32:37;;;;;;;7.10;5.67;;;;;;;0.13;87.68;98110.09;5001963;28;20401;-83
2023/01/18 06:35:03;;;;;;;7.53;4.55;;;;;;;0.13;87.53;98117.91;5000815;28;20026;-84
2023/01/18 06:37:30;;;;;;;7.05;4.53;;;;;;;0.14;87.61;98116.13;5000914;28;20034;-84
2023/01/18 06:39:55;;;;;;;8.32;5.55;;;;;;;0.11;89.04;98119.81;5004416;28;20494;-84
2023/01/18 06:42:23;;;;;;;6.95;4.82;;;;;;;0.12;88.22;98126.69;5003447;28;20053;-84
2023/01/18 06:44:48;;;;;;;8.57;5.35;;;;;;;0.13;88.55;98125.69;5004027;28;20045;-84
2023/01/18 06:47:18;;;;;;;7.97;4.57;;;;;;;0.14;87.90;98135.16;5005286;28;20034;-85
2023/01/18 06:49:49;;;;;;;7.93;5.55;;;;;;;0.15;88.45;98146.34;5021217;28;20145;-85
2023/01/18 06:52:15;;;;;;;8.70;5.45;;;;;;;0.14;89.48;98148.16;5021050;28;20065;-85
2023/01/18 06:54:41;;;;;;;10.07;5.10;;;;;;;0.14;88.66;98145.53;5006326;28;20030;-85
2023/01/18 06:57:06;;;;;;;7.05;5.18;;;;;;;0.17;88.02;98157.44;5021780;28;20040;-83
2023/01/18 06:59:40;;;;;;;7.95;4.90;;;;;;;0.17;87.83;98154.81;4993011;28;20098;-84
2023/01/18 07:02:08;;;;;;;7.05;4.65;;;;;;;0.17;88.15;98162.63;5030570;28;20041;-83
2023/01/18 07:04:42;;;;;;;6.68;4.45;;;;;;;0.18;87.57;98170.25;5002602;28;20038;-83
2023/01/18 07:07:08;;;;;;;7.05;4.13;;;;;;;0.18;87.65;98166.84;5018980;28;20069;-83
2023/01/18 07:09:33;;;;;;;5.85;3.78;;;;;;;0.18;87.48;98172.84;5020079;28;20134;-84
2023/01/18 07:11:59;;;;;;;6.28;3.58;;;;;;;0.19;87.61;98181.47;4998244;28;20046;-82
2023/01/18 07:14:24;;;;;;;5.80;3.70;;;;;;;0.17;88.05;98183.41;5019742;28;20046;-82
2023/01/18 07:16:49;;;;;;;7.40;5.03;;;;;;;0.15;88.54;98190.53;5030621;28;20050;-83
2023/01/18 07:19:15;;;;;;;9.40;5.40;;;;;;;0.14;87.84;98189.72;5020469;28;20056;-83
2023/01/18 07:21:40;;;;;;;7.75;4.97;;;;;;;0.13;87.71;98198.47;5004034;28;20037;-83
2023/01/18 07:24:06;;;;;;;7.13;4.75;;;;;;;0.11;87.78;98200.38;5019049;28;20065;-83
2023/01/18 07:26:31;;;;;;;8.98;5.10;;;;;;;0.09;88.23;98204.91;4995509;28;20037;-84
2023/01/18 07:28:56;;;;;;;9.15;5.22;;;;;;;0.11;87.70;98208.19;4999755;28;20482;-83
2023/01/18 07:31:25;;;;;;;6.88;4.47;;;;;;;0.12;87.58;98214.19;5019751;28;20030;-82
2023/01/18 07:33:51;;;;;;;7.85;4.55;;;;;;;0.12;87.49;98215.03;5003625;28;20041;-84
2023/01/18 07:36:16;;;;;;;6.75;4.45;;;;;;;0.14;87.11;98215.72;5002677;28;20034;-84
2023/01/18 07:38:41;;;;;;;8.82;5.68;;;;;;;0.13;87.83;98218.44;5021270;28;20102;-83
2023/01/18 07:41:10;;;;;;;9.23;6.05;;;;;;;0.13;88.46;98227.03;5003408;28;20049;-84
2023/01/18 07:43:38;;;;;;;9.63;5.68;;;;;;;0.15;88.10;98225.13;5003435;28;20038;-84
2023/01/18 07:46:06;;;;;;;10.23;5.88;;;;;;;0.16;88.12;98231.13;5011965;28;20453;-84
2023/01/18 07:48:32;;;;;;;7.18;4.80;;;;;;;0.18;87.93;98240.44;5022389;28;20513;-84
2023/01/18 07:51:00;;;;;;;8.60;5.72;;;;;;;0.19;88.11;98234.28;5021031;28;20053;-84
2023/01/18 07:53:26;;;;;;;9.10;5.32;;;;;;;0.21;88.30;98247.13;5020224;28;20022;-83
2023/01/18 07:55:53;;;;;;;8.70;5.97;;;;;;;0.19;89.40;98252.47;5021111;28;20038;-84
2023/01/18 07:58:18;;;;;;;12.73;7.47;;;;;;;0.20;88.93;98256.69;5002192;28;20042;-84
2023/01/18 08:00:45;;;;;;;10.70;6.38;;;;;;;0.24;88.40;98264.22;5019719;28;20038;-84
2023/01/18 08:03:13;;;;;;;10.18;6.63;;;;;;;0.23;89.26;98267.78;5021438;28;20496;-84
2023/01/18 08:05:39;;;;;;;9.93;5.90;;;;;;;0.28;87.83;98271.59;5015690;28;20577;-84
2023/01/18 08:08:10;;;;;;;8.88;5.70;;;;;;;0.29;89.06;98277.63;5016531;28;20093;-83
2023/01/18 08:10:36;;;;;;;10.80;6.80;;;;;;;0.29;89.05;98280.22;5020821;28;20040;-83
2023/01/18 08:13:02;;;;;;;11.63;7.30;;;;;;;0.28;89.99;98286.38;5022293;28;20112;-84
2023/01/18 08:15:28;;;;;;;10.43;6.82;;;;;;;0.33;89.36;98284.97;5018587;28;20081;-83
2023/01/18 08:17:54;;;;;;;11.90;6.78;;;;;;;0.38;88.88;98295.78;5011228;28;20030;-84
2023/01/18 08:20:20;;;;;;;10.63;5.70;;;;;;;0.42;88.91;98296.31;5020122;28;20120;-84
2023/01/18 08:22:46;;;;;;;7.93;5.47;;;;;;;0.51;88.50;98305.84;5019649;28;20397;-84
2023/01/18 08:25:12;;;;;;;7.47;5.05;;;;;;;0.57;87.89;98312.25;4995371;28;20038;-84
2023/01/18 08:27:37;;;;;;;7.75;4.70;;;;;;;0.63;87.51;98312.50;5011866;28;20047;-82
2023/01/18 08:30:04;;;;;;;7.80;5.18;;;;;;;0.68;87.46;98311.25;5012736;28;20553;-83
2023/01/18 08:32:29;;;;;;;8.05;4.45;;;;;;;0.73;86.98;98322.06;4992778;28;20137;-83
2023/01/18 08:34:55;;;;;;;8.35;5.35;;;;;;;0.70;86.63;98317.97;4999958;28;20046;-85
2023/01/18 08:37:22;;;;;;;9.10;6.18;;;;;;;0.74;86.96;98321.09;5001573;28;20034;-84
2023/01/18 08:39:48;;;;;;;8.05;5.07;;;;;;;0.79;86.76;98322.31;5021088;28;20057;-84
2023/01/18 08:42:13;;;;;;;11.23;5.80;;;;;;;0.76;86.53;98325.22;5019130;28;20041;-84
2023/01/18 08:44:38;;;;;;;10.07;4.88;;;;;;;0.81;86.16;98337.75;5021315;28;20046;-84
2023/01/18 08:47:04;;;;;;;9.23;5.07;;;;;;;0.79;86.24;98345.72;5010701;28;20160;-85
2023/01/18 08:49:31;;;;;;;8.57;5.75;;;;;;;0.77;85.58;98346.84;5013118;28;20132;-85
2023/01/18 08:51:57;;;;;;;8.48;4.80;;;;;;;0.81;85.90;98353.38;5017675;28;20065;-84
2023/01/18 08:54:23;;;;;;;7.10;4.78;;;;;;;0.88;85.91;98353.63;5003618;28;20037;-84
2023/01/18 08:56:48;;;;;;;8.35;4.57;;;;;;;0.93;85.65;98369.63;5023101;28;20283;-84
2023/01/18 08:59:13;;;;;;;6.65;4.22;;;;;;;0.97;85.67;98365.75;5001843;28;20130;-85
2023/01/18 09:01:39;;;;;;;7.15;4.38;;;;;;;0.96;85.10;98369.34;5003010;28;20045;-84
2023/01/18 09:04:04;;;;;;;9.45;5.00;;;;;;;0.97;85.15;98373.56;5020353;28;20049;-84
2023/01/18 09:06:30;;;;;;;7.63;5.00;;;;;;;1.01;84.31;98378.34;5003037;28;20046;-83
2023/01/18 09:08:56;;;;;;;10.23;4.78;;;;;;;1.02;84.48;98381.75;5014173;28;20089;-85
2023/01/18 09:11:22;;;;;;;7.32;5.10;;;;;;;0.96;84.27;98390.97;5020373;28;20080;-84
2023/01/18 09:13:47;;;;;;;7.40;4.35;;;;;;;1.02;84.62;98394.78;5022210;28;20048;-84
2023/01/18 09:16:16;;;;;;;8.23;4.65;;;;;;;1.03;83.92;98394.66;5001978;28;20038;-83
2023/01/18 09:18:41;;;;;;;7.03;3.80;;;;;;;1.08;84.21;98401.22;5014773;28;20101;-84
2023/01/18 09:21:09;;;;;;;5.90;3.85;;;;;;;1.14;84.05;98406.63;5020406;28;20050;-83
2023/01/18 09:23:38;;;;;;;7.55;4.10;;;;;;;1.23;84.25;98416.19;5003983;28;20092;-84
2023/01/18 09:26:17;;;;;;;6.00;4.13;;;;;;;1.26;83.92;98417.69;5019306;28;20061;-85
2023/01/18 09:28:47;;;;;;;8.55;4.75;;;;;;;1.28;82.89;98423.56;5015033;28;20034;-84
2023/01/18 09:31:13;;;;;;;6.97;4.28;;;;;;;1.26;82.47;98425.50;5008489;28;20034;-84
2023/01/18 09:33:41;;;;;;;8.88;4.13;;;;;;;1.29;82.78;98433.03;5024695;28;20042;-84
2023/01/18 09:36:08;;;;;;;9.40;4.20;;;;;;;1.29;81.94;98440.84;5024000;28;20030;-84
2023/01/18 09:38:35;;;;;;;5.95;4.13;;;;;;;1.37;82.82;98447.94;5006786;28;20060;-84
2023/01/18 09:41:01;;;;;;;7.57;4.47;;;;;;;1.51;82.86;98451.84;5006677;28;20069;-85
2023/01/18 09:43:33;;;;;;;6.22;3.95;;;;;;;1.64;82.31;98460.94;5016958;28;20727;-84
2023/01/18 09:46:00;;;;;;;7.65;4.03;;;;;;;1.73;79.94;98461.03;4993681;28;20042;-84
2023/01/18 09:48:31;;;;;;;6.70;3.95;;;;;;;1.84;79.02;98464.25;5026238;28;20049;-84
2023/01/18 09:50:59;;;;;;;;;;;;;;;1.87;77.32;98466.56;5028066;28;20042;-83
2023/01/18 09:53:49;;;;;;;5.95;3.60;;;;;;;1.99;77.93;98474.19;5008297;28;19929;-82
2023/01/18 09:56:35;;;;;;;7.30;3.42;;;;;;;2.05;76.52;98481.41;4998313;28;20069;-85
2023/01/18 09:59:31;;;;;;;7.35;3.50;;;;;;;2.13;75.63;98489.31;5037320;28;20032;-86
2023/01/18 10:02:01;;;;;;;6.28;3.17;;;;;;;2.22;74.41;98490.22;5016633;28;20041;-87
2023/01/18 10:04:39;;;;;;;5.32;3.10;;;;;;;2.32;75.32;98483.94;5036290;28;20172;-86
2023/01/18 10:07:11;;;;;;;5.53;3.00;;;;;;;2.43;74.64;98487.28;5020643;28;20085;-85
2023/01/18 10:09:44;;;;;;;4.47;3.00;;;;;;;2.50;73.85;98488.31;5030843;23;20042;-84
2023/01/18 10:12:28;;;;;;;4.40;2.80;;;;;;;2.66;74.66;98498.91;4995162;28;20562;-84
2023/01/18 10:15:04;;;;;;;4.97;2.90;;;;;;;2.85;74.29;98494.47;5006270;28;20043;-84
2023/01/18 10:17:37;;;;;;;6.13;3.05;;;;;;;2.86;71.67;98496.09;5009329;28;20035;-84
2023/01/18 10:20:31;;;;;;;4.03;2.55;;;;;;;3.05;73.91;98502.91;4985747;28;20047;-85
2023/01/18 10:23:01;;;;;;;7.53;3.00;;;;;;;3.26;74.07;98505.97;4993288;28;20049;-83
2023/01/18 10:25:45;;;;;;;5.15;2.70;;;;;;;3.36;72.89;98505.88;4994188;28;20129;-83
2023/01/18 10:28:26;;;;;;;5.95;3.03;;;;;;;3.26;67.13;98505.16;4992593;28;20043;-84
2023/01/18 10:31:20;;;;;;;5.65;2.75;;;;;;;3.34;69.84;98511.25;4992111;28;20107;-86
2023/01/18 10:33:47;;;;;;;4.20;2.65;;;;;;;3.31;68.89;98505.53;4987733;28;20043;-86
2023/01/18 10:36:17;;;;;;;3.45;2.40;;;;;;;3.46;69.50;98508.41;4986107;28;20035;-87
2023/01/18 10:38:43;;;;;;;6.78;3.55;;;;;;;3.39;67.68;98511.63;4986969;28;20035;-87
2023/01/18 10:41:18;;;;;;;5.20;2.50;;;;;;;3.60;69.68;98510.41;4986046;28;20062;-88
2023/01/18 10:43:44;;;;;;;3.50;2.35;;;;;;;3.91;70.05;98513.31;4984342;28;20038;-87
2023/01/18 10:46:16;;;;;;;5.60;2.80;;;;;;;3.81;64.94;98516.06;4976865;28;20077;-86
2023/01/18 10:48:50;;;;;;;5.68;2.70;;;;;;;3.74;66.46;98515.06;4985596;28;20038;-88
2023/01/18 10:51:36;;;;;;;5.50;2.80;;;;;;;3.63;65.59;98517.13;4984253;28;20030;-85
2023/01/18 10:54:30;;;;;;;4.88;2.97;;;;;;;3.73;67.27;98520.44;4975610;28;20054;-87
2023/01/18 10:57:05;;;;;;;5.97;2.97;;;;;;;3.83;67.28;98529.75;4970747;28;20627;-86
2023/01/18 10:59:36;;;;;;;5.97;3.08;;;;;;;3.86;66.22;98528.63;4984665;28;20062;-86
2023/01/18 11:02:29;;;;;;;;;;;;;;;3.77;65.75;98535.63;4984676;28;20043;-86
2023/01/18 11:05:03;;;;;;;6.25;3.15;;;;;;;3.77;64.66;98529.59;4983363;28;19922;-85
2023/01/18 11:07:28;;;;;;;6.22;2.85;;;;;;;3.65;65.02;98546.50;4984557;28;20047;-87
2023/01/18 11:09:58;;;;;;;6.43;2.78;;;;;;;3.50;65.13;98536.63;4984431;28;20753;-86
2023/01/18 11:12:41;;;;;;;4.40;2.42;;;;;;;3.49;65.04;98531.59;4976356;28;20042;-88
2023/01/18 11:15:13;;;;;;;6.45;3.00;;;;;;;3.29;65.32;98538.81;4985112;28;20031;-86
2023/01/18 11:17:43;;;;;;;5.70;2.85;;;;;;;3.27;66.45;98540.78;4985198;28;20094;-86
2023/01/18 11:20:28;;;;;;;5.95;2.85;;;;;;;3.31;66.69;98542.09;4984656;28;20054;-86
2023/01/18 11:23:02;;;;;;;6.65;2.90;;;;;;;3.38;66.10;98545.72;4987354;28;20073;-86
2023/01/18 11:25:37;;;;;;;5.95;3.28;;;;;;;3.27;64.63;98540.78;4989320;28;20049;-85
2023/01/18 11:28:15;;;;;;;4.38;2.70;;;;;;;3.36;66.37;98542.44;4968425;28;20031;-85
2023/01/18 11:30:51;;;;;;;7.43;3.20;;;;;;;3.31;64.15;98536.88;4982883;28;20099;-85
2023/01/18 11:33:22;;;;;;;7.30;3.13;;;;;;;3.27;64.64;98549.44;4990392;28;20038;-84
2023/01/18 11:35:55;;;;;;;;;;;;;;;3.24;64.96;98543.69;4984894;28;20038;-89
2023/01/18 11:38:33;;;;;;;5.35;2.90;;;;;;;3.31;65.96;98544.69;4978473;28;19909;-88
2023/01/18 11:41:30;;;;;;;5.85;3.25;;;;;;;3.36;64.58;98543.28;4995838;28;20984;-87
2023/01/18 11:44:04;;;;;;;5.55;3.05;;;;;;;3.45;63.96;98564.22;4989225;28;20038;-87
2023/01/18 11:46:41;;;;;;;4.82;2.72;;;;;;;3.54;65.29;98564.09;4995997;28;20051;-88
2023/01/18 11:49:43;;;;;;;5.47;2.92;;;;;;;3.60;63.62;98573.13;4995224;28;20043;-85
2023/01/18 11:52:46;;;;;;;5.15;2.60;;;;;;;3.44;61.89;98567.81;5025778;23;20112;-88
2023/01/18 11:56:00;;;;;;;4.20;2.55;;;;;;;3.49;62.93;98576.00;4993656;28;20065;-88
2023/01/18 11:58:28;;;;;;;4.57;2.75;;;;;;;3.64;63.97;98568.41;4927782;29;20398;-88
2023/01/18 12:01:22;;;;;;;6.55;2.65;;;;;;;3.56;62.21;98577.03;4983287;28;20049;-88
2023/01/18 12:04:18;;;;;;;5.18;3.13;;;;;;;3.62;63.12;98579.00;5003570;28;20065;-88
2023/01/18 12:07:02;;;;;;;5.50;2.83;;;;;;;3.63;62.07;98582.47;5008188;28;20042;-88
2023/01/18 12:09:53;;;;;;;5.47;2.50;;;;;;;3.58;61.73;98582.94;4992488;28;20041;-88
2023/01/18 12:12:33;;;;;;;6.15;2.97;;;;;;;3.77;63.08;98592.34;4991675;28;20530;-88
2023/01/18 12:15:25;;;;;;;5.18;2.85;;;;;;;3.94;63.79;98591.44;5007722;28;20374;-88
2023/01/18 12:18:11;;;;;;;4.13;2.90;;;;;;;4.01;61.49;98595.06;4995853;28;20099;-88
2023/01/18 12:21:07;;;;;;;4.03;2.80;;;;;;;4.02;61.96;98601.91;4986570;28;20050;-88
2023/01/18 12:24:10;;;;;;;5.03;3.10;;;;;;;3.89;61.49;98598.13;5010860;28;20038;-88
2023/01/18 12:27:05;;;;;;;7.10;3.85;;;;;;;3.80;61.45;98605.91;5002013;28;20046;-88
2023/01/18 12:30:01;;;;;;;6.43;2.88;;;;;;;3.87;60.52;98602.69;5006953;28;20072;-88
2023/01/18 12:32:47;;;;;;;5.35;3.03;;;;;;;3.91;62.24;98614.44;4990786;28;20054;-88
2023/01/18 12:35:15;;;;;;;5.43;3.10;;;;;;;3.99;62.10;98615.31;4992961;28;20060;-88
2023/01/18 12:37:56;;;;;;;6.05;3.03;;;;;;;3.98;60.36;98613.69;4992374;28;20508;-88
2023/01/18 12:40:48;;;;;;;4.57;2.70;;;;;;;3.93;59.56;98625.56;5008051;28;20077;-88
2023/01/18 12:43:26;;;;;;;6.00;2.90;;;;;;;3.86;57.83;98625.38;4991587;28;20044;-88
2023/01/18 12:46:03;;;;;;;6.03;2.95;;;;;;;3.75;58.91;98636.09;4992482;28;20064;-88
2023/01/18 12:48:46;;;;;;;6.95;2.50;;;;;;;3.70;57.09;98622.69;4992109;28;20721;-88
2023/01/18 12:51:16;;;;;;;4.90;2.90;;;;;;;3.66;56.95;98626.56;4992379;28;20113;-87
2023/01/18 12:53:44;;;;;;;6.00;2.67;;;;;;;3.64;56.04;98633.75;4993532;28;20377;-88
2023/01/18 12:56:14;;;;;;;4.90;2.58;;;;;;;3.62;56.09;98631.28;4993822;28;20038;-88
2023/01/18 12:58:40;;;;;;;6.07;3.13;;;;;;;3.69;58.39;98634.09;4993256;28;20042;-88
2023/01/18 13:01:17;;;;;;;7.57;3.03;;;;;;;3.71;56.93;98634.78;4993548;28;20046;-87
2023/01/18 13:03:46;;;;;;;5.13;3.00;;;;;;;3.78;58.65;98646.25;5005147;28;20044;-88
2023/01/18 13:06:12;;;;;;;5.90;3.00;;;;;;;3.82;58.58;98650.19;5006324;28;20408;-88
2023/01/18 13:08:53;;;;;;;5.07;2.97;;;;;;;3.81;57.98;98652.00;4993686;28;20438;-88
2023/01/18 13:11:40;;;;;;;8.75;3.38;;;;;;;3.76;58.41;98646.38;5010932;28;20030;-88
2023/01/18 13:14:44;;;;;;;6.97;3.47;;;;;;;3.78;58.33;98654.09;4992908;28;20041;-88
2023/01/18 13:17:25;;;;;;;6.13;3.58;;;;;;;3.68;57.09;98656.00;4975999;28;20046;-87
2023/01/18 13:19:57;;;;;;;;;;;;;;;3.61;58.96;98667.06;4972233;28;20041;-87
2023/01/18 13:22:33;;;;;;;8.75;4.07;;;;;;;3.55;58.84;98662.44;4998482;28;20182;-87